Time;durP1;ratioP1;P1;durP2;ratioP2;P2;SDS_P1;SDS_P2;PMS_P1;PMS_P2;Temp;Humidity;BMP_temperature;BMP_pressure;BME280_temperature;BME280_humidity;BME280_pressure;Samples;Min_cycle;Max_cycle;Signal;HPM_P1;HPM_P2
2021/12/27 00:00:21;;;;;;;16.95;10.03;;;6.40;99.90;;;;;;2018910;70;21117;-78
2021/12/27 00:02:47;;;;;;;15.30;10.53;;;6.40;99.90;;;;;;2020163;70;21036;-78
2021/12/27 00:05:13;;;;;;;12.78;9.75;;;6.50;99.90;;;;;;2018298;70;21005;-76
2021/12/27 00:07:39;;;;;;;12.37;9.68;;;6.40;99.90;;;;;;2023148;71;21149;-77
2021/12/27 00:10:05;;;;;;;12.35;9.65;;;6.40;99.90;;;;;;2020270;70;21170;-75
2021/12/27 00:12:32;;;;;;;12.28;9.18;;;6.40;99.90;;;;;;2011105;70;21444;-76
2021/12/27 00:14:58;;;;;;;14.23;10.25;;;6.50;99.90;;;;;;2020265;70;21553;-76
2021/12/27 00:17:24;;;;;;;13.70;10.55;;;6.30;99.90;;;;;;2020899;70;21452;-76
2021/12/27 00:19:50;;;;;;;14.00;10.95;;;6.40;99.90;;;;;;2020157;70;21444;-76
2021/12/27 00:22:16;;;;;;;15.45;9.95;;;6.30;99.90;;;;;;2018933;70;21039;-76
2021/12/27 00:24:46;;;;;;;17.12;11.05;;;6.20;99.90;;;;;;2013785;70;21048;-75
2021/12/27 00:27:10;;;;;;;15.35;10.48;;;6.30;99.90;;;;;;2021939;70;21068;-76
2021/12/27 00:29:36;;;;;;;16.95;10.88;;;6.50;99.90;;;;;;2022646;70;21120;-76
2021/12/27 00:32:02;;;;;;;12.60;9.55;;;6.50;99.90;;;;;;2022965;70;21047;-75
2021/12/27 00:34:28;;;;;;;24.82;11.25;;;6.40;99.90;;;;;;2014842;70;21105;-74
2021/12/27 00:36:54;;;;;;;22.02;10.70;;;6.40;99.90;;;;;;2018481;70;21072;-76
2021/12/27 00:39:21;;;;;;;14.65;10.35;;;6.50;99.90;;;;;;2021366;70;21048;-75
2021/12/27 00:41:47;;;;;;;15.13;10.48;;;6.50;99.90;;;;;;2022464;70;21105;-76
2021/12/27 00:44:13;;;;;;;12.80;10.25;;;6.50;99.90;;;;;;2018599;70;21047;-75
2021/12/27 00:46:39;;;;;;;11.95;9.98;;;6.50;99.90;;;;;;2020565;70;21039;-76
2021/12/27 00:49:05;;;;;;;13.95;10.15;;;6.50;99.90;;;;;;2019290;70;21043;-76
2021/12/27 00:51:31;;;;;;;14.85;9.90;;;6.50;99.90;;;;;;2015741;70;21120;-74
2021/12/27 00:53:57;;;;;;;16.48;9.48;;;6.40;99.90;;;;;;2014073;70;21127;-75
2021/12/27 00:56:23;;;;;;;16.87;9.40;;;6.40;99.90;;;;;;2020115;70;21125;-76
2021/12/27 00:58:50;;;;;;;14.15;9.88;;;6.50;99.90;;;;;;2019973;70;21123;-77
2021/12/27 01:01:16;;;;;;;17.77;10.55;;;6.60;99.90;;;;;;2021860;70;21017;-76
2021/12/27 01:03:42;;;;;;;18.87;9.98;;;6.60;99.90;;;;;;2021003;70;21145;-75
2021/12/27 01:06:08;;;;;;;16.65;10.70;;;6.60;99.90;;;;;;2023174;71;21464;-75
2021/12/27 01:08:36;;;;;;;12.28;9.53;;;6.50;99.90;;;;;;2021921;70;21528;-76
2021/12/27 01:13:41;;;;;;;12.98;9.65;;;6.50;99.90;;;;;;2019969;70;21476;-76
2021/12/27 01:18:36;;;;;;;17.07;9.70;;;6.60;99.90;;;;;;2020885;70;20139;-76
2021/12/27 01:21:02;;;;;;;15.43;9.23;;;6.50;99.90;;;;;;2022797;71;21109;-75
2021/12/27 01:23:29;;;;;;;15.68;9.75;;;6.50;99.90;;;;;;2022282;70;21024;-76
2021/12/27 01:25:55;;;;;;;13.85;9.48;;;6.40;99.90;;;;;;2021340;71;21087;-75
2021/12/27 01:28:21;;;;;;;15.78;9.73;;;6.50;99.90;;;;;;2020244;70;21043;-75
2021/12/27 01:30:48;;;;;;;13.90;9.70;;;6.50;99.90;;;;;;2014318;70;21056;-76
2021/12/27 01:33:15;;;;;;;17.23;9.08;;;6.50;99.90;;;;;;2019340;70;21596;-76
2021/12/27 01:35:41;;;;;;;12.55;8.28;;;6.60;99.90;;;;;;2019839;70;21094;-76
2021/12/27 01:38:07;;;;;;;10.88;8.10;;;6.60;99.90;;;;;;2020506;70;21039;-76
2021/12/27 01:40:33;;;;;;;11.85;8.85;;;6.60;99.90;;;;;;2022093;71;21028;-76
2021/12/27 01:42:59;;;;;;;11.95;8.95;;;6.50;99.90;;;;;;2022692;70;21121;-76
2021/12/27 01:45:25;;;;;;;9.95;8.18;;;6.40;99.90;;;;;;2020644;70;21007;-76
2021/12/27 01:47:52;;;;;;;11.33;8.13;;;6.50;99.90;;;;;;2023519;70;21214;-75
2021/12/27 01:50:18;;;;;;;11.35;8.43;;;6.40;99.90;;;;;;2022794;70;21141;-76
2021/12/27 01:52:44;;;;;;;13.43;9.25;;;6.40;99.90;;;;;;2023123;70;21032;-76
2021/12/27 01:55:10;;;;;;;12.78;9.28;;;6.40;99.90;;;;;;2018064;70;21113;-76
2021/12/27 01:57:36;;;;;;;11.78;8.33;;;6.40;99.90;;;;;;2017810;70;21102;-76
2021/12/27 02:00:02;;;;;;;15.72;8.65;;;6.40;99.90;;;;;;2022749;71;21009;-75
2021/12/27 02:02:28;;;;;;;13.45;8.85;;;6.30;99.90;;;;;;2013868;70;21044;-76
2021/12/27 02:04:54;;;;;;;10.23;7.90;;;6.30;99.90;;;;;;2018553;70;21031;-76
2021/12/27 02:07:21;;;;;;;11.22;8.85;;;6.30;99.90;;;;;;2021371;70;21116;-75
2021/12/27 02:09:58;;;;;;;15.25;8.60;;;6.20;99.90;;;;;;2018755;70;21163;-76
2021/12/27 02:12:14;;;;;;;15.60;9.15;;;6.30;99.90;;;;;;2020158;70;21093;-76
2021/12/27 02:14:41;;;;;;;11.18;7.95;;;6.20;99.90;;;;;;2021835;70;21060;-76
2021/12/27 02:17:07;;;;;;;13.20;8.38;;;6.20;99.90;;;;;;2017815;70;21055;-75
2021/12/27 02:19:33;;;;;;;13.32;8.65;;;6.20;99.90;;;;;;2020474;70;21044;-76
2021/12/27 02:21:59;;;;;;;12.45;9.00;;;6.30;99.90;;;;;;2019470;70;21016;-76
2021/12/27 02:24:25;;;;;;;11.73;8.48;;;6.30;99.90;;;;;;2020478;70;21075;-75
2021/12/27 02:26:51;;;;;;;11.73;8.65;;;6.40;99.90;;;;;;2018848;70;21121;-75
2021/12/27 02:29:17;;;;;;;13.70;8.23;;;6.40;99.90;;;;;;2021102;70;21035;-76
2021/12/27 02:31:44;;;;;;;15.15;8.83;;;6.30;99.90;;;;;;2022502;70;21147;-76
2021/12/27 02:34:11;;;;;;;13.18;9.23;;;6.30;99.90;;;;;;2020225;70;21428;-75
2021/12/27 02:36:37;;;;;;;14.87;9.25;;;6.30;99.90;;;;;;2021515;71;21004;-76
2021/12/27 02:39:03;;;;;;;13.53;8.75;;;6.20;99.90;;;;;;2017827;70;21171;-76
2021/12/27 02:41:29;;;;;;;11.97;8.55;;;6.30;99.90;;;;;;2021503;70;21054;-75
2021/12/27 02:43:55;;;;;;;12.70;8.38;;;6.30;99.90;;;;;;2021846;70;21094;-76
2021/12/27 02:46:21;;;;;;;16.62;9.20;;;6.20;99.90;;;;;;2020818;70;21100;-75
2021/12/27 02:48:47;;;;;;;17.02;8.93;;;6.20;99.90;;;;;;2018035;70;21021;-75
2021/12/27 02:51:14;;;;;;;10.20;7.65;;;6.10;99.90;;;;;;2019832;70;21048;-76
2021/12/27 02:53:40;;;;;;;12.68;8.45;;;6.10;99.90;;;;;;2020013;70;21076;-76
2021/12/27 02:56:06;;;;;;;10.82;8.15;;;6.10;99.90;;;;;;2021957;70;21117;-76
2021/12/27 02:58:32;;;;;;;12.73;8.45;;;6.00;99.90;;;;;;2022358;70;21117;-76
2021/12/27 03:00:59;;;;;;;12.88;9.10;;;6.00;99.90;;;;;;2018304;70;21109;-76
2021/12/27 03:03:25;;;;;;;12.65;8.60;;;6.00;99.90;;;;;;2022274;70;21068;-76
2021/12/27 03:05:51;;;;;;;12.37;9.00;;;6.00;99.90;;;;;;2023192;69;21109;-76
2021/12/27 03:08:17;;;;;;;10.88;8.25;;;6.00;99.90;;;;;;2021219;70;21051;-76
2021/12/27 03:10:43;;;;;;;13.28;8.38;;;6.00;99.90;;;;;;2021042;70;21503;-75
2021/12/27 03:13:09;;;;;;;14.13;8.88;;;6.10;99.90;;;;;;2018612;71;21520;-74
2021/12/27 03:15:35;;;;;;;14.30;8.83;;;6.20;99.90;;;;;;2019926;70;21463;-75
2021/12/27 03:18:01;;;;;;;11.22;8.70;;;6.20;99.90;;;;;;2019589;70;21523;-75
2021/12/27 03:20:28;;;;;;;14.35;8.80;;;6.10;99.90;;;;;;2020945;70;21043;-75
2021/12/27 03:22:54;;;;;;;14.03;9.88;;;6.00;99.90;;;;;;2021058;70;21105;-76
2021/12/27 03:25:20;;;;;;;10.70;8.78;;;6.10;99.90;;;;;;2018467;70;21044;-76
2021/12/27 03:27:46;;;;;;;13.72;9.13;;;6.00;99.90;;;;;;2019855;70;21029;-76
2021/12/27 03:30:12;;;;;;;16.05;9.63;;;6.00;99.90;;;;;;2019519;70;21098;-76
2021/12/27 03:32:38;;;;;;;12.53;9.25;;;6.00;99.90;;;;;;2021842;70;21152;-75
2021/12/27 03:35:10;;;;;;;11.88;9.33;;;5.90;99.90;;;;;;2019481;70;21036;-76
2021/12/27 03:37:32;;;;;;;14.90;10.35;;;5.90;99.90;;;;;;2022070;70;21133;-75
2021/12/27 03:39:58;;;;;;;15.23;9.53;;;6.00;99.90;;;;;;2021902;71;21043;-75
2021/12/27 03:42:24;;;;;;;16.20;9.85;;;6.00;99.90;;;;;;2020802;71;21000;-76
2021/12/27 03:44:50;;;;;;;14.35;9.83;;;6.00;99.90;;;;;;2021802;70;21040;-76
2021/12/27 03:47:17;;;;;;;13.22;9.75;;;6.00;99.90;;;;;;2021704;70;21152;-76
2021/12/27 03:49:43;;;;;;;13.08;8.88;;;6.10;99.90;;;;;;2023244;70;21525;-76
2021/12/27 03:52:09;;;;;;;12.18;9.55;;;6.10;99.90;;;;;;2021747;70;21048;-76
2021/12/27 03:54:35;;;;;;;10.80;8.95;;;6.00;99.90;;;;;;2021687;71;21060;-76
2021/12/27 03:57:01;;;;;;;13.70;9.38;;;6.00;99.90;;;;;;2022996;70;21032;-76
2021/12/27 04:02:11;;;;;;;14.00;9.98;;;6.10;99.90;;;;;;2021844;70;21080;-76
2021/12/27 04:04:37;;;;;;;14.80;9.55;;;6.20;99.90;;;;;;2021989;70;21052;-76
2021/12/27 04:07:03;;;;;;;13.43;8.78;;;6.10;99.90;;;;;;2019808;70;21198;-76
2021/12/27 04:09:29;;;;;;;13.58;9.13;;;6.10;99.90;;;;;;2018321;70;21059;-76
2021/12/27 04:11:55;;;;;;;11.25;8.45;;;6.00;99.90;;;;;;2022703;70;21504;-75
2021/12/27 04:14:33;;;;;;;11.68;8.93;;;5.90;99.90;;;;;;2022850;70;21640;-76
2021/12/27 04:16:59;;;;;;;10.48;7.75;;;6.10;99.90;;;;;;2022427;71;21074;-75
2021/12/27 04:19:25;;;;;;;10.38;8.28;;;6.10;99.90;;;;;;2019530;70;21098;-75
2021/12/27 04:21:51;;;;;;;11.35;8.50;;;6.00;99.90;;;;;;2019520;70;21044;-76
2021/12/27 04:24:18;;;;;;;17.65;9.23;;;6.00;99.90;;;;;;2020136;70;21047;-75
2021/12/27 04:26:44;;;;;;;10.60;8.73;;;5.90;99.90;;;;;;2022476;69;21013;-76
2021/12/27 04:29:10;;;;;;;13.68;10.38;;;5.90;99.90;;;;;;2018915;70;21121;-74
2021/12/27 04:31:36;;;;;;;12.85;9.10;;;5.90;99.90;;;;;;2018498;70;21048;-75
2021/12/27 04:34:02;;;;;;;9.88;7.85;;;6.00;99.90;;;;;;2021190;70;21120;-76
2021/12/27 04:36:28;;;;;;;11.33;8.63;;;6.00;99.90;;;;;;2020492;70;21016;-76
2021/12/27 04:38:55;;;;;;;14.65;8.40;;;6.00;99.90;;;;;;2022201;70;21028;-75
2021/12/27 04:41:21;;;;;;;11.50;8.65;;;5.90;99.90;;;;;;2020291;70;21036;-75
2021/12/27 04:43:47;;;;;;;15.00;8.78;;;5.90;99.90;;;;;;2022576;70;21055;-74
2021/12/27 04:46:13;;;;;;;11.48;7.53;;;5.80;99.90;;;;;;2020130;71;21036;-74
2021/12/27 04:48:39;;;;;;;12.10;8.58;;;6.00;99.90;;;;;;2021758;70;21047;-74
2021/12/27 04:51:05;;;;;;;9.90;7.83;;;5.90;99.90;;;;;;2023518;70;21016;-74
2021/12/27 04:53:32;;;;;;;8.43;7.30;;;6.00;99.90;;;;;;2021547;70;21048;-74
2021/12/27 04:55:58;;;;;;;11.80;8.80;;;6.10;99.90;;;;;;2017622;70;21056;-75
2021/12/27 04:58:24;;;;;;;11.45;7.78;;;6.10;99.90;;;;;;2017103;70;21478;-74
2021/12/27 05:00:50;;;;;;;11.50;8.35;;;6.10;99.90;;;;;;2017479;70;21553;-75
2021/12/27 05:03:16;;;;;;;14.85;8.50;;;6.10;99.90;;;;;;2018449;70;21373;-75
2021/12/27 05:05:45;;;;;;;14.33;8.00;;;6.00;99.90;;;;;;2020289;70;21524;-74
2021/12/27 05:08:10;;;;;;;15.90;8.83;;;5.90;99.90;;;;;;2023157;70;21080;-74
2021/12/27 05:10:36;;;;;;;14.20;7.83;;;5.90;99.90;;;;;;2020847;70;21068;-75
2021/12/27 05:13:02;;;;;;;12.53;8.43;;;5.90;99.90;;;;;;2022224;70;21012;-75
2021/12/27 05:15:28;;;;;;;11.18;8.63;;;6.00;99.90;;;;;;2022033;70;21537;-75
2021/12/27 05:17:55;;;;;;;10.10;7.85;;;6.00;99.90;;;;;;2019191;70;21396;-74
2021/12/27 05:20:21;;;;;;;8.83;7.85;;;6.10;99.90;;;;;;2022258;70;21505;-74
2021/12/27 05:22:47;;;;;;;10.70;7.37;;;6.00;99.90;;;;;;2019263;70;21471;-74
2021/12/27 05:25:16;;;;;;;13.68;8.75;;;5.90;99.90;;;;;;2022208;70;21012;-75
2021/12/27 05:27:41;;;;;;;14.75;8.65;;;6.00;99.90;;;;;;2022244;71;21117;-75
2021/12/27 05:30:07;;;;;;;14.23;8.75;;;5.90;99.90;;;;;;2020550;71;21051;-74
2021/12/27 05:32:35;;;;;;;10.93;8.08;;;5.90;99.90;;;;;;2019475;70;21440;-75
2021/12/27 05:35:01;;;;;;;13.08;9.38;;;6.00;99.90;;;;;;2022487;70;21219;-76
2021/12/27 05:37:27;;;;;;;13.15;8.15;;;6.00;99.90;;;;;;2018454;70;21003;-75
2021/12/27 05:39:53;;;;;;;9.95;8.50;;;5.90;99.90;;;;;;2020588;70;21045;-75
2021/12/27 05:42:19;;;;;;;16.40;9.63;;;5.90;99.90;;;;;;2020442;70;21533;-75
2021/12/27 05:44:45;;;;;;;10.50;8.68;;;5.90;99.90;;;;;;2022037;70;21156;-75
2021/12/27 05:47:11;;;;;;;12.15;8.80;;;5.90;99.90;;;;;;2021446;70;21051;-75
2021/12/27 05:49:38;;;;;;;11.50;8.23;;;5.80;99.90;;;;;;2018400;70;21191;-75
2021/12/27 05:52:04;;;;;;;10.48;7.75;;;5.90;99.90;;;;;;2020201;70;21484;-75
2021/12/27 05:54:30;;;;;;;13.58;7.70;;;6.00;99.90;;;;;;2019219;70;21441;-76
2021/12/27 05:56:56;;;;;;;10.18;7.40;;;5.90;99.90;;;;;;2021078;70;21527;-75
2021/12/27 05:59:22;;;;;;;15.35;7.92;;;5.90;99.90;;;;;;2017710;69;21553;-75
2021/12/27 06:01:48;;;;;;;9.05;7.60;;;5.90;99.90;;;;;;2020451;70;21120;-75
2021/12/27 06:04:14;;;;;;;11.85;8.75;;;5.80;99.90;;;;;;2018513;70;21044;-74
2021/12/27 06:06:40;;;;;;;14.10;8.15;;;6.00;99.90;;;;;;2020999;70;21017;-74
2021/12/27 06:09:07;;;;;;;10.60;8.73;;;6.00;99.90;;;;;;2021463;70;21051;-75
2021/12/27 06:11:33;;;;;;;16.73;8.30;;;5.90;99.90;;;;;;2020963;70;21194;-76
2021/12/27 06:13:59;;;;;;;14.75;7.67;;;6.00;99.90;;;;;;2019626;70;21048;-75
2021/12/27 06:16:25;;;;;;;10.75;7.92;;;6.00;99.90;;;;;;2021342;70;21034;-75
2021/12/27 06:18:51;;;;;;;12.20;8.15;;;6.00;99.90;;;;;;2021568;70;21109;-75
2021/12/27 06:21:17;;;;;;;9.33;7.75;;;5.80;99.90;;;;;;2019185;70;21039;-76
2021/12/27 06:23:43;;;;;;;9.03;7.42;;;5.80;99.90;;;;;;2020931;70;21044;-75
2021/12/27 06:26:09;;;;;;;10.35;7.22;;;5.70;99.90;;;;;;2018058;70;21040;-75
2021/12/27 06:28:36;;;;;;;8.83;7.28;;;5.80;99.90;;;;;;2021566;70;21137;-75
2021/12/27 06:31:02;;;;;;;13.00;7.80;;;5.70;99.90;;;;;;2022798;70;21040;-75
2021/12/27 06:33:28;;;;;;;10.35;6.92;;;5.70;99.90;;;;;;2021998;70;21125;-74
2021/12/27 06:35:54;;;;;;;9.25;7.40;;;5.60;99.90;;;;;;2022570;70;21503;-76
2021/12/27 06:38:21;;;;;;;12.82;6.97;;;5.50;99.90;;;;;;2022568;70;21631;-75
2021/12/27 06:40:47;;;;;;;12.65;8.18;;;5.40;99.90;;;;;;2022083;70;21055;-73
2021/12/27 06:43:13;;;;;;;7.85;6.60;;;5.30;99.90;;;;;;2020920;70;21137;-74
2021/12/27 06:45:39;;;;;;;11.33;8.05;;;5.30;99.90;;;;;;2021377;70;21008;-76
2021/12/27 06:48:05;;;;;;;10.95;7.75;;;5.20;99.90;;;;;;2020801;70;21048;-75
2021/12/27 06:50:31;;;;;;;13.05;7.62;;;5.20;99.90;;;;;;2020033;70;21164;-76
2021/12/27 06:52:58;;;;;;;10.95;6.83;;;5.10;99.90;;;;;;2022439;70;21056;-75
2021/12/27 06:55:24;;;;;;;10.28;7.28;;;4.90;99.90;;;;;;2022392;70;21103;-75
2021/12/27 06:57:50;;;;;;;10.68;8.30;;;4.90;99.90;;;;;;2019588;70;21466;-75
2021/12/27 07:00:16;;;;;;;9.83;7.78;;;4.70;99.90;;;;;;2018752;70;21541;-75
2021/12/27 07:02:42;;;;;;;9.45;8.45;;;4.60;99.90;;;;;;2021817;71;21431;-74
2021/12/27 07:05:08;;;;;;;10.03;8.53;;;4.70;99.90;;;;;;2022782;70;21214;-75
2021/12/27 07:07:34;;;;;;;11.05;7.78;;;4.70;99.90;;;;;;2019089;70;21518;-78
2021/12/27 07:10:00;;;;;;;9.88;8.10;;;4.70;99.90;;;;;;2020172;70;21105;-78
2021/12/27 07:12:26;;;;;;;11.43;8.05;;;4.70;99.90;;;;;;2020380;70;21101;-78
2021/12/27 07:14:53;;;;;;;8.65;7.22;;;4.70;99.90;;;;;;2020986;70;21136;-78
2021/12/27 07:17:19;;;;;;;12.00;8.88;;;4.60;99.90;;;;;;2020232;70;21058;-78
2021/12/27 07:19:46;;;;;;;12.10;9.05;;;4.40;99.90;;;;;;2019633;70;21472;-77
2021/12/27 07:22:12;;;;;;;9.33;8.28;;;4.40;99.90;;;;;;2019406;70;21452;-77
2021/12/27 07:24:38;;;;;;;13.13;9.40;;;4.50;99.90;;;;;;2020451;70;21458;-78
2021/12/27 07:27:04;;;;;;;18.50;9.25;;;4.50;99.90;;;;;;2019083;70;21478;-80
2021/12/27 07:29:30;;;;;;;12.98;9.25;;;4.50;99.90;;;;;;2019362;70;21157;-80
2021/12/27 07:31:56;;;;;;;17.92;9.35;;;4.40;99.90;;;;;;2020320;70;21043;-79
2021/12/27 07:34:24;;;;;;;11.40;8.60;;;4.40;99.90;;;;;;2020486;69;21110;-77
2021/12/27 07:36:50;;;;;;;18.00;10.68;;;4.40;99.90;;;;;;2021642;70;21593;-77
2021/12/27 07:39:16;;;;;;;12.98;9.13;;;4.50;99.90;;;;;;2019427;70;21436;-77
2021/12/27 07:41:42;;;;;;;14.87;10.18;;;4.60;99.90;;;;;;2020918;70;21485;-78
2021/12/27 07:44:09;;;;;;;13.70;9.08;;;4.60;99.90;;;;;;2021159;71;21032;-77
2021/12/27 07:46:40;;;;;;;13.35;9.45;;;4.60;99.90;;;;;;2022739;71;21036;-78
2021/12/27 07:49:02;;;;;;;12.78;8.63;;;4.60;99.90;;;;;;2017403;70;21071;-79
2021/12/27 07:51:29;;;;;;;10.43;7.60;;;4.60;99.90;;;;;;2018819;70;21039;-77
2021/12/27 07:53:55;;;;;;;9.88;7.58;;;4.70;99.90;;;;;;2019902;70;21024;-76
2021/12/27 07:56:21;;;;;;;13.13;7.67;;;4.70;99.90;;;;;;2018898;70;21105;-78
2021/12/27 07:58:47;;;;;;;10.95;7.65;;;4.80;99.90;;;;;;2021728;70;21102;-78
2021/12/27 08:01:13;;;;;;;9.10;7.85;;;4.70;99.90;;;;;;2022037;70;21035;-76
2021/12/27 08:03:39;;;;;;;8.78;7.53;;;4.60;99.90;;;;;;2021357;70;21039;-81
2021/12/27 08:06:05;;;;;;;12.10;8.50;;;4.50;99.90;;;;;;2020833;70;21016;-76
2021/12/27 08:08:31;;;;;;;15.00;8.50;;;4.60;99.90;;;;;;2019242;70;21051;-76
2021/12/27 08:10:58;;;;;;;10.08;8.03;;;4.60;99.90;;;;;;2018932;70;21063;-75
2021/12/27 08:13:24;;;;;;;13.50;8.85;;;4.70;99.90;;;;;;2020680;70;21149;-75
2021/12/27 08:15:50;;;;;;;15.05;8.65;;;4.70;99.90;;;;;;2022780;70;21129;-84
2021/12/27 08:18:16;;;;;;;10.00;8.90;;;4.60;99.90;;;;;;2023127;69;21020;-78
2021/12/27 08:20:42;;;;;;;17.27;9.30;;;4.60;99.90;;;;;;2019806;70;21428;-78
2021/12/27 08:23:08;;;;;;;13.22;9.78;;;4.70;99.90;;;;;;2021984;70;21500;-79
2021/12/27 08:25:34;;;;;;;14.63;10.20;;;4.70;99.90;;;;;;2020734;70;21480;-79
2021/12/27 08:28:00;;;;;;;16.07;9.78;;;4.80;99.90;;;;;;2020834;70;21183;-78
2021/12/27 08:30:27;;;;;;;17.80;12.65;;;4.70;99.90;;;;;;2022567;70;21160;-79
2021/12/27 08:32:55;;;;;;;21.40;9.40;;;4.70;99.90;;;;;;2022291;70;21113;-79
2021/12/27 08:35:20;;;;;;;11.60;9.30;;;4.90;99.90;;;;;;2020945;70;21077;-78
2021/12/27 08:37:47;;;;;;;12.18;9.38;;;5.00;99.90;;;;;;2019348;70;21161;-77
2021/12/27 08:40:13;;;;;;;10.60;8.78;;;4.90;99.90;;;;;;2020306;70;21039;-78
2021/12/27 08:42:39;;;;;;;11.08;9.08;;;4.90;99.90;;;;;;2020906;70;21109;-82
2021/12/27 08:45:05;;;;;;;20.02;9.18;;;4.90;99.90;;;;;;2019858;70;21040;-79
2021/12/27 08:47:31;;;;;;;11.60;8.30;;;5.00;99.90;;;;;;2020182;70;21120;-80
2021/12/27 08:49:59;;;;;;;11.30;8.58;;;5.20;99.90;;;;;;2019720;70;21107;-79
2021/12/27 08:52:25;;;;;;;9.20;7.30;;;5.40;99.90;;;;;;2018193;70;21125;-79
2021/12/27 08:54:51;;;;;;;9.90;7.95;;;5.60;99.90;;;;;;2019584;70;21052;-81
2021/12/27 08:57:17;;;;;;;12.63;8.88;;;5.70;99.90;;;;;;2019873;70;21084;-78
2021/12/27 08:59:43;;;;;;;10.20;8.18;;;5.80;99.90;;;;;;2018923;70;21047;-80
2021/12/27 09:02:09;;;;;;;9.85;7.25;;;6.20;99.90;;;;;;2022968;70;21106;-83
2021/12/27 09:04:36;;;;;;;8.48;7.30;;;6.50;99.90;;;;;;2019934;70;21045;-78
2021/12/27 09:07:02;;;;;;;10.68;8.20;;;6.80;99.90;;;;;;2020355;70;21032;-77
2021/12/27 09:09:28;;;;;;;8.40;7.25;;;7.00;99.90;;;;;;2021726;70;21031;-79
2021/12/27 09:11:54;;;;;;;13.18;7.95;;;6.80;99.90;;;;;;2018808;71;21445;-79
2021/12/27 09:14:20;;;;;;;9.23;7.90;;;7.10;99.90;;;;;;2021840;70;21588;-79
2021/12/27 09:16:46;;;;;;;11.40;8.20;;;7.20;99.90;;;;;;2019556;70;21046;-79
2021/12/27 09:19:13;;;;;;;11.10;8.05;;;7.10;99.90;;;;;;2022460;70;21042;-76
2021/12/27 09:21:39;;;;;;;17.35;10.80;;;6.90;99.90;;;;;;2013068;70;21046;-79
2021/12/27 09:24:05;;;;;;;10.30;9.00;;;7.10;99.90;;;;;;2023225;70;21110;-81
2021/12/27 09:26:31;;;;;;;16.48;10.05;;;7.20;99.90;;;;;;2018728;70;21133;-79
2021/12/27 09:28:58;;;;;;;11.57;8.43;;;7.50;99.90;;;;;;2021008;71;21149;-79
2021/12/27 09:31:24;;;;;;;17.12;7.10;;;7.70;99.90;;;;;;2018276;70;21133;-78
2021/12/27 09:33:50;;;;;;;10.18;7.40;;;7.60;99.90;;;;;;2021789;70;21105;-80
2021/12/27 09:36:16;;;;;;;10.55;7.40;;;7.90;99.90;;;;;;2022811;71;21032;-80
2021/12/27 09:38:45;;;;;;;11.15;6.78;;;8.20;99.90;;;;;;2022644;70;21183;-81
2021/12/27 09:41:11;;;;;;;9.65;5.83;;;8.40;99.90;;;;;;2022169;70;21040;-81
2021/12/27 09:43:37;;;;;;;20.20;6.15;;;8.50;99.90;;;;;;2014721;70;21284;-79
2021/12/27 09:46:04;;;;;;;10.18;6.30;;;8.50;99.90;;;;;;2021119;70;21025;-78
2021/12/27 09:48:30;;;;;;;7.30;5.60;;;8.60;99.90;;;;;;2021655;71;21013;-79
2021/12/27 09:50:56;;;;;;;9.38;5.30;;;8.40;99.90;;;;;;2019674;70;21125;-78
2021/12/27 09:53:22;;;;;;;8.50;5.55;;;8.50;99.90;;;;;;2019846;70;21468;-78
2021/12/27 09:55:53;;;;;;;5.80;4.95;;;8.80;99.90;;;;;;2020471;69;21118;-81
2021/12/27 09:58:16;;;;;;;6.00;4.47;;;8.90;99.90;;;;;;2018444;70;21565;-82
2021/12/27 10:00:42;;;;;;;7.17;5.08;;;9.20;99.90;;;;;;2022959;70;21597;-81
2021/12/27 10:03:11;;;;;;;5.80;5.15;;;9.60;99.90;;;;;;2022574;70;21158;-83
2021/12/27 10:05:37;;;;;;;6.72;5.08;;;9.90;99.90;;;;;;2019986;70;21008;-83
2021/12/27 10:08:03;;;;;;;7.08;5.40;;;10.00;99.90;;;;;;2023477;70;21043;-84
2021/12/27 10:10:34;;;;;;;7.17;5.50;;;10.00;99.90;;;;;;2013419;70;21038;-84
2021/12/27 10:12:57;;;;;;;6.55;5.35;;;10.50;99.90;;;;;;2018022;70;21135;-80
2021/12/27 10:15:24;;;;;;;6.17;5.20;;;10.40;99.90;;;;;;2021946;70;21025;-81
2021/12/27 10:17:52;;;;;;;9.95;4.92;;;10.20;99.90;;;;;;2018726;70;21105;-81
2021/12/27 10:20:18;;;;;;;8.88;4.47;;;10.10;99.90;;;;;;2021292;70;21110;-80
2021/12/27 10:22:45;;;;;;;5.67;4.78;;;10.30;99.90;;;;;;2019648;70;21035;-83
2021/12/27 10:25:11;;;;;;;7.72;5.03;;;10.30;99.90;;;;;;2020696;70;21109;-79
2021/12/27 10:27:37;;;;;;;5.25;4.30;;;10.50;99.90;;;;;;2019287;70;21052;-80
2021/12/27 10:30:03;;;;;;;7.97;5.15;;;11.00;99.90;;;;;;2017518;71;21098;-87
2021/12/27 10:32:29;;;;;;;5.75;4.10;;;11.40;99.90;;;;;;2021153;70;21097;-82
2021/12/27 10:34:55;;;;;;;7.08;4.03;;;11.60;99.90;;;;;;2019977;70;21132;-84
2021/12/27 10:37:21;;;;;;;4.30;3.90;;;11.50;99.90;;;;;;2022022;70;21070;-80
2021/12/27 10:39:48;;;;;;;5.00;4.37;;;11.50;99.90;;;;;;2021930;71;21083;-82
2021/12/27 10:42:14;;;;;;;5.70;3.98;;;11.60;99.90;;;;;;2022832;70;21024;-81
2021/12/27 10:44:40;;;;;;;6.08;4.15;;;11.90;99.90;;;;;;2022933;71;21039;-80
2021/12/27 10:47:06;;;;;;;7.60;4.40;;;12.00;99.90;;;;;;2020574;70;21113;-80
2021/12/27 10:49:32;;;;;;;6.05;3.45;;;12.50;99.90;;;;;;2022667;70;21214;-80
2021/12/27 10:52:00;;;;;;;6.25;3.95;;;12.60;99.90;;;;;;2021689;70;21071;-80
2021/12/27 10:54:26;;;;;;;3.70;3.37;;;12.40;99.90;;;;;;2022646;70;21068;-78
2021/12/27 10:56:52;;;;;;;3.75;3.35;;;12.50;99.90;;;;;;2023362;70;21150;-80
2021/12/27 10:59:18;;;;;;;3.45;3.12;;;12.60;99.90;;;;;;2021624;70;21118;-79
2021/12/27 11:01:44;;;;;;;4.65;3.72;;;12.00;99.90;;;;;;2021442;70;21021;-80
2021/12/27 11:04:12;;;;;;;5.78;3.52;;;12.60;99.90;;;;;;2019967;70;21101;-81
2021/12/27 11:06:40;;;;;;;3.80;3.25;;;12.90;99.90;;;;;;2021715;70;21110;-84
2021/12/27 11:09:07;;;;;;;4.30;3.42;;;13.60;99.90;;;;;;2021817;70;21126;-76
2021/12/27 11:11:34;;;;;;;5.97;3.27;;;13.20;99.90;;;;;;2023348;70;21091;-79
2021/12/27 11:14:01;;;;;;;5.08;3.08;;;13.30;99.90;;;;;;2021366;70;21101;-79
2021/12/27 11:16:28;;;;;;;4.53;3.45;;;13.90;99.90;;;;;;2004474;70;21109;-79
2021/12/27 11:18:54;;;;;;;3.35;3.05;;;13.40;99.90;;;;;;2021740;70;21524;-79
2021/12/27 11:21:21;;;;;;;6.17;3.85;;;12.90;99.90;;;;;;2020271;70;21455;-78
2021/12/27 11:23:48;;;;;;;2.98;2.75;;;13.20;99.90;;;;;;2021923;70;21243;-78
2021/12/27 11:26:14;;;;;;;3.72;2.80;;;13.30;99.90;;;;;;2020986;70;21044;-79
2021/12/27 11:28:40;;;;;;;5.28;3.17;;;13.10;99.90;;;;;;2022092;70;21062;-79
2021/12/27 11:31:07;;;;;;;5.12;3.08;;;12.80;99.90;;;;;;2019858;70;21369;-79
2021/12/27 11:33:34;;;;;;;4.05;3.02;;;12.60;99.90;;;;;;2019738;70;21036;-78
2021/12/27 11:36:03;;;;;;;3.15;2.90;;;12.20;99.90;;;;;;2016960;70;21048;-78
2021/12/27 11:38:28;;;;;;;4.75;3.75;;;12.00;99.90;;;;;;2016598;70;21076;-79
2021/12/27 11:40:54;;;;;;;5.50;3.58;;;11.80;99.90;;;;;;2014002;69;21102;-79
2021/12/27 11:43:20;;;;;;;4.28;3.87;;;11.70;99.90;;;;;;2021517;70;21112;-80
2021/12/27 11:45:46;;;;;;;6.30;3.92;;;11.70;99.90;;;;;;2021816;70;21082;-79
2021/12/27 11:48:12;;;;;;;7.62;3.77;;;11.60;99.90;;;;;;2013124;70;21392;-79
2021/12/27 11:50:38;;;;;;;5.60;3.33;;;11.60;99.90;;;;;;2021533;70;21502;-78
2021/12/27 11:53:05;;;;;;;5.65;3.67;;;11.40;99.90;;;;;;2019760;70;21540;-78
2021/12/27 11:55:31;;;;;;;7.50;3.45;;;11.20;99.90;;;;;;2019292;70;21226;-79
2021/12/27 11:57:58;;;;;;;5.37;3.10;;;11.10;99.90;;;;;;2018102;70;21104;-79
2021/12/27 12:00:29;;;;;;;4.60;3.42;;;10.80;99.90;;;;;;2013960;70;21175;-78
2021/12/27 12:02:54;;;;;;;3.30;3.00;;;10.80;99.90;;;;;;2014549;70;21492;-79
2021/12/27 12:05:20;;;;;;;4.97;2.92;;;11.00;99.90;;;;;;2015518;70;21043;-78
2021/12/27 12:07:49;;;;;;;3.83;3.37;;;11.10;99.90;;;;;;2023515;70;21044;-78
2021/12/27 12:10:21;;;;;;;5.33;3.67;;;11.00;99.90;;;;;;2018563;70;21020;-78
2021/12/27 12:12:47;;;;;;;6.58;3.77;;;11.10;99.90;;;;;;2020755;70;21023;-80
2021/12/27 12:15:18;;;;;;;3.90;3.10;;;11.20;99.90;;;;;;2018921;70;21121;-82
2021/12/27 12:20:33;;;;;;;4.90;3.50;;;11.20;99.90;;;;;;2019988;70;21099;-78
2021/12/27 12:22:57;;;;;;;3.60;3.17;;;11.30;99.90;;;;;;2018213;70;21138;-79
2021/12/27 12:25:25;;;;;;;5.03;3.30;;;11.30;99.90;;;;;;2022647;69;21104;-80
2021/12/27 12:27:54;;;;;;;4.65;3.17;;;11.10;99.90;;;;;;2013055;70;21076;-78
2021/12/27 12:30:25;;;;;;;4.15;3.02;;;11.00;99.90;;;;;;2019440;70;21031;-79
2021/12/27 12:32:50;;;;;;;;;;;11.10;99.90;;;;;;2022601;69;21089;-78
2021/12/27 12:35:19;;;;;;;3.60;3.27;;;11.20;99.90;;;;;;2020214;70;20144;-79
2021/12/27 12:37:44;;;;;;;9.48;3.58;;;11.10;99.90;;;;;;2022542;70;21456;-79
2021/12/27 12:40:10;;;;;;;5.90;3.67;;;11.00;99.90;;;;;;2019761;70;21040;-80
2021/12/27 12:42:37;;;;;;;6.67;3.42;;;11.10;99.90;;;;;;2013122;70;21162;-79
2021/12/27 12:45:04;;;;;;;3.10;2.80;;;11.10;99.90;;;;;;2021867;70;21042;-80
2021/12/27 12:47:35;;;;;;;3.70;3.30;;;11.00;99.90;;;;;;2012823;70;21479;-79
2021/12/27 12:50:00;;;;;;;4.65;3.40;;;11.00;99.90;;;;;;2018283;70;21308;-81
2021/12/27 12:52:27;;;;;;;5.37;3.30;;;11.10;99.90;;;;;;2022556;70;21158;-79